M/V Hera — V7UA5 — position and weather

sailwx.info

Track history (hours):
 
Tides and Currents Weather Stations Pressure Air Temp Water Temp Dewpoint Dewpoint Depression Visibility Wind Speed Wind Dir Waves Ship Positions

M/V Hera

Last reported at 2014-Jun-07 18:16 UTC. Time now 2014-Jul-22 23:37 UTC.
Position N 36°28' W 001°45'.
Warning: this ship's position is 45 days out of date.

Length 175 m; draft 10.5 m.

Type: Cargo ship. MMSI: 538003917.

Date/timePositionNaut miles runAvg speedWind from/ knotsBaromVisibWave heightAir tempDewpointWater temp
2014-Jun-07 18:16N 36°28' W 001°45'27711.2
2014-Jun-06 17:27N 37°10' E 003°57'1111.9
2014-Jun-06 16:33N 37°11' E 004°10'3611.8
2014-Jun-06 13:31N 37°16' E 004°55'3411.6
2014-Jun-06 10:33N 37°22' E 005°38'5312.4
2014-Jun-06 06:15N 37°29' E 006°44'912.2
2014-Jun-06 05:28N 37°30' E 006°56'1411.7
2014-Jun-06 04:19N 37°32' E 007°13'1011.4
2014-Jun-06 03:28N 37°33' E 007°25'1412.8
2014-Jun-06 02:21N 37°35' E 007°43'1212.2
2014-Jun-06 01:24N 37°37' E 007°57'1112.4
2014-Jun-06 00:32N 37°38' E 008°11'1412.3
2014-Jun-05 23:26N 37°40' E 008°28'1011.2
2014-Jun-05 22:33N 37°42' E 008°40'1611.4
2014-Jun-05 21:12N 37°44' E 008°60'2111.7
2014-Jun-05 19:25N 37°42' E 009°26'1011.8
2014-Jun-05 18:32N 37°41' E 009°39'1111.3
2014-Jun-05 17:33N 37°41' E 009°53'1111.2
2014-Jun-05 16:33N 37°40' E 010°07'1111.2
2014-Jun-05 15:33N 37°39' E 010°21'1211.3
2014-Jun-05 14:32N 37°39' E 010°36'1111.1
2014-Jun-05 13:33N 37°37' E 010°49'1212.0
2014-Jun-05 12:32N 37°31' E 011°03'  
2014-Jun-02 22:29N 37°10' E 023°55'1611.7
2014-Jun-02 21:06N 37°22' E 024°09'711.9
2014-Jun-02 20:30N 37°27' E 024°15'1212.4
2014-Jun-02 19:33N 37°35' E 024°26'1211.8
2014-Jun-02 18:32N 37°46' E 024°31'14111.6
2014-Jun-02 06:23N 39°53' E 025°50'4311.0
2014-Jun-02 02:29N 40°19' E 026°36'1211.4
2014-Jun-02 01:23N 40°27' E 026°48'  
Track history (hours):
 
Tides and Currents Weather Stations Pressure Air Temp Water Temp Dewpoint Dewpoint Depression Visibility Wind Speed Wind Dir Waves Ship Positions

M/V Hera

Last reported at 2014-Jun-07 18:16 UTC. Time now 2014-Jul-22 23:37 UTC.
Position N 36°28' W 001°45'.
Warning: this ship's position is 45 days out of date.

Length 175 m; draft 10.5 m.

Type: Cargo ship. MMSI: 538003917.

Date/timePositionNaut miles runAvg speedWind from/ knotsBaromVisibWave heightAir tempDewpointWater temp
2014-Jun-07 18:16N 36°28' W 001°45'27711.2
2014-Jun-06 17:27N 37°10' E 003°57'1111.9
2014-Jun-06 16:33N 37°11' E 004°10'3611.8
2014-Jun-06 13:31N 37°16' E 004°55'3411.6
2014-Jun-06 10:33N 37°22' E 005°38'5312.4
2014-Jun-06 06:15N 37°29' E 006°44'912.2
2014-Jun-06 05:28N 37°30' E 006°56'1411.7
2014-Jun-06 04:19N 37°32' E 007°13'1011.4
2014-Jun-06 03:28N 37°33' E 007°25'1412.8
2014-Jun-06 02:21N 37°35' E 007°43'1212.2
2014-Jun-06 01:24N 37°37' E 007°57'1112.4
2014-Jun-06 00:32N 37°38' E 008°11'1412.3
2014-Jun-05 23:26N 37°40' E 008°28'1011.2
2014-Jun-05 22:33N 37°42' E 008°40'1611.4
2014-Jun-05 21:12N 37°44' E 008°60'2111.7
2014-Jun-05 19:25N 37°42' E 009°26'1011.8
2014-Jun-05 18:32N 37°41' E 009°39'1111.3
2014-Jun-05 17:33N 37°41' E 009°53'1111.2
2014-Jun-05 16:33N 37°40' E 010°07'1111.2
2014-Jun-05 15:33N 37°39' E 010°21'1211.3
2014-Jun-05 14:32N 37°39' E 010°36'1111.1
2014-Jun-05 13:33N 37°37' E 010°49'1212.0
2014-Jun-05 12:32N 37°31' E 011°03'  
2014-Jun-02 22:29N 37°10' E 023°55'1611.7
2014-Jun-02 21:06N 37°22' E 024°09'711.9
2014-Jun-02 20:30N 37°27' E 024°15'1212.4
2014-Jun-02 19:33N 37°35' E 024°26'1211.8
2014-Jun-02 18:32N 37°46' E 024°31'14111.6
2014-Jun-02 06:23N 39°53' E 025°50'4311.0
2014-Jun-02 02:29N 40°19' E 026°36'1211.4
2014-Jun-02 01:23N 40°27' E 026°48'  

Dump ship's entire track history